Time;durP1;ratioP1;P1;durP2;ratioP2;P2;SDS_P1;SDS_P2;PMS_P1;PMS_P2;Temp;Humidity;BMP_temperature;BMP_pressure;BME280_temperature;BME280_humidity;BME280_pressure;Samples;Min_cycle;Max_cycle;Signal;HPM_P1;HPM_P2
2023/09/23 00:00:37;;;;;;;6.50;5.20;;;18.70;99.90;;;;;;5056759;28;20172;-80
2023/09/23 00:03:04;;;;;;;5.83;5.23;;;18.70;99.90;;;;;;5057004;28;20639;-81
2023/09/23 00:05:35;;;;;;;6.93;5.30;;;18.70;99.90;;;;;;5056127;28;20175;-80
2023/09/23 00:08:00;;;;;;;8.27;5.27;;;18.70;99.90;;;;;;5038388;28;20670;-81
2023/09/23 00:10:27;;;;;;;6.97;5.87;;;18.70;99.90;;;;;;5055829;28;20239;-80
2023/09/23 00:12:55;;;;;;;6.50;5.33;;;18.70;99.90;;;;;;5056248;28;20640;-80
2023/09/23 00:15:21;;;;;;;7.10;5.20;;;18.70;99.90;;;;;;5056134;28;20172;-78
2023/09/23 00:17:48;;;;;;;5.57;4.87;;;18.70;99.90;;;;;;5056308;28;20516;-78
2023/09/23 00:20:16;;;;;;;7.97;5.53;;;18.70;99.90;;;;;;5056577;28;20167;-80
2023/09/23 00:22:45;;;;;;;5.67;5.17;;;18.60;99.90;;;;;;5057208;28;20176;-79
2023/09/23 00:25:10;;;;;;;10.47;5.43;;;18.60;99.90;;;;;;5059864;28;20180;-80
2023/09/23 00:27:36;;;;;;;6.30;4.90;;;18.60;99.90;;;;;;5056793;28;20251;-78
2023/09/23 00:30:04;;;;;;;7.13;5.60;;;18.60;99.90;;;;;;5055945;28;20218;-79
2023/09/23 00:32:32;;;;;;;6.60;5.47;;;18.50;99.90;;;;;;5055902;28;20172;-80
2023/09/23 00:34:59;;;;;;;7.57;5.40;;;18.40;99.90;;;;;;5055348;28;20212;-81
2023/09/23 00:37:25;;;;;;;6.20;5.20;;;18.40;99.90;;;;;;5058810;28;20575;-78
2023/09/23 00:39:51;;;;;;;6.93;5.63;;;18.40;99.90;;;;;;5079085;28;20203;-79
2023/09/23 00:42:21;;;;;;;7.80;5.53;;;18.30;99.90;;;;;;5072559;28;20199;-78
2023/09/23 00:44:47;;;;;;;6.27;5.67;;;18.30;99.90;;;;;;5058977;28;20254;-80
2023/09/23 00:47:15;;;;;;;11.07;5.67;;;18.40;99.90;;;;;;5051574;28;20655;-81
2023/09/23 00:49:44;;;;;;;5.50;5.00;;;18.40;99.90;;;;;;5055569;28;20273;-80
2023/09/23 00:52:13;;;;;;;5.80;5.27;;;18.30;99.90;;;;;;5055430;28;20185;-78
2023/09/23 00:54:49;;;;;;;6.63;5.70;;;18.40;99.90;;;;;;5055624;28;20192;-79
2023/09/23 00:57:17;;;;;;;6.43;5.10;;;18.30;99.90;;;;;;5058878;28;20180;-80
2023/09/23 00:59:43;;;;;;;8.00;5.40;;;18.50;99.90;;;;;;5042771;28;20175;-79
2023/09/23 01:02:13;;;;;;;8.23;5.90;;;18.50;99.90;;;;;;5059336;28;20176;-77
2023/09/23 01:04:39;;;;;;;6.23;5.20;;;18.50;99.90;;;;;;5057912;28;20169;-79
2023/09/23 01:07:09;;;;;;;6.50;5.23;;;18.40;99.90;;;;;;5044466;28;20200;-77
2023/09/23 01:09:35;;;;;;;5.97;4.87;;;18.40;99.90;;;;;;5056345;28;20707;-78
2023/09/23 01:12:01;;;;;;;7.17;4.97;;;18.50;99.90;;;;;;5021054;28;20540;-78
2023/09/23 01:14:27;;;;;;;7.23;5.20;;;18.50;99.90;;;;;;5039925;28;20184;-79
2023/09/23 01:16:53;;;;;;;6.47;5.17;;;18.50;99.90;;;;;;5038896;28;20184;-79
2023/09/23 01:19:23;;;;;;;4.97;4.53;;;18.50;99.90;;;;;;5040652;28;20181;-79
2023/09/23 01:21:50;;;;;;;6.13;5.37;;;18.50;99.90;;;;;;5038595;28;20148;-78
2023/09/23 01:24:20;;;;;;;6.23;5.43;;;18.50;99.90;;;;;;5036862;28;20270;-79
2023/09/23 01:26:51;;;;;;;6.07;4.63;;;18.50;99.90;;;;;;5035736;28;20219;-78
2023/09/23 01:29:23;;;;;;;5.43;4.97;;;18.50;99.90;;;;;;5037781;28;20728;-79
2023/09/23 01:32:18;;;;;;;5.43;4.87;;;18.50;99.90;;;;;;5038993;28;20199;-78
2023/09/23 01:34:43;;;;;;;8.47;5.23;;;18.60;99.90;;;;;;5020957;28;20245;-78
2023/09/23 01:37:09;;;;;;;7.27;4.93;;;18.60;99.90;;;;;;5038334;28;20560;-78
2023/09/23 01:39:39;;;;;;;5.40;4.90;;;18.60;99.90;;;;;;5040417;28;20176;-79
2023/09/23 01:42:07;;;;;;;6.87;5.80;;;18.60;99.90;;;;;;5047157;28;20173;-79
2023/09/23 01:44:32;;;;;;;5.20;4.73;;;18.50;99.90;;;;;;5035174;28;20262;-78
2023/09/23 01:46:58;;;;;;;5.60;5.10;;;18.40;99.90;;;;;;5035214;28;20259;-78
2023/09/23 01:49:24;;;;;;;5.67;5.20;;;18.30;99.90;;;;;;5037125;28;20234;-78
2023/09/23 01:51:50;;;;;;;5.77;5.10;;;18.30;99.90;;;;;;5037170;28;20538;-78
2023/09/23 01:54:16;;;;;;;7.63;5.53;;;18.30;99.90;;;;;;5034809;28;20169;-78
2023/09/23 01:56:44;;;;;;;6.00;4.47;;;18.30;99.90;;;;;;5034788;28;20171;-77
2023/09/23 01:59:11;;;;;;;6.63;4.97;;;18.20;99.90;;;;;;5034738;28;20179;-77
2023/09/23 02:01:40;;;;;;;5.47;4.70;;;18.10;99.90;;;;;;5035149;28;20172;-77
2023/09/23 02:04:09;;;;;;;6.03;5.27;;;18.10;99.90;;;;;;5035077;28;20652;-78
2023/09/23 02:06:41;;;;;;;5.13;4.67;;;18.10;99.90;;;;;;5034666;28;20171;-78
2023/09/23 02:09:09;;;;;;;5.33;4.83;;;18.10;99.90;;;;;;5034570;28;20197;-77
2023/09/23 02:11:38;;;;;;;5.20;4.70;;;18.10;99.90;;;;;;5034260;28;20187;-79
2023/09/23 02:14:07;;;;;;;5.23;4.83;;;18.00;99.90;;;;;;5037644;28;20165;-78
2023/09/23 02:16:33;;;;;;;6.40;4.90;;;18.00;99.90;;;;;;5039127;28;20640;-79
2023/09/23 02:18:59;;;;;;;5.27;4.73;;;18.00;99.90;;;;;;5034688;28;20169;-77
2023/09/23 02:21:28;;;;;;;5.27;4.73;;;18.00;99.90;;;;;;5034572;28;20540;-79
2023/09/23 02:23:57;;;;;;;8.40;4.80;;;18.00;99.90;;;;;;5033742;28;20232;-77
2023/09/23 02:26:24;;;;;;;6.13;4.63;;;17.90;99.90;;;;;;5034593;28;20259;-79
2023/09/23 02:28:50;;;;;;;5.27;4.40;;;17.90;99.90;;;;;;5034519;28;20240;-78
2023/09/23 02:31:16;;;;;;;5.00;4.60;;;18.00;99.90;;;;;;5034653;28;20527;-78
2023/09/23 02:33:43;;;;;;;5.83;4.80;;;18.00;99.90;;;;;;5035317;28;20172;-78
2023/09/23 02:36:11;;;;;;;7.30;4.77;;;17.90;99.90;;;;;;5049012;28;20160;-78
2023/09/23 02:38:37;;;;;;;5.30;4.90;;;17.80;99.90;;;;;;5033888;28;20532;-78
2023/09/23 02:41:04;;;;;;;5.23;4.83;;;17.80;99.90;;;;;;5034471;28;20183;-77
2023/09/23 02:43:29;;;;;;;5.50;4.60;;;17.80;99.90;;;;;;5040235;28;20171;-78
2023/09/23 02:46:00;;;;;;;4.73;4.23;;;17.80;99.90;;;;;;5044536;28;20176;-77
2023/09/23 02:48:26;;;;;;;5.70;4.20;;;17.80;99.90;;;;;;5046092;28;20752;-78
2023/09/23 02:50:53;;;;;;;4.20;3.90;;;17.80;99.90;;;;;;5017403;28;20181;-76
2023/09/23 02:53:19;;;;;;;4.67;4.30;;;17.90;99.90;;;;;;5035572;28;20243;-79
2023/09/23 02:55:51;;;;;;;6.90;4.40;;;17.90;99.90;;;;;;5053600;28;20175;-79
2023/09/23 02:58:22;;;;;;;6.33;4.17;;;18.00;99.90;;;;;;5020762;28;20264;-80
2023/09/23 03:00:57;;;;;;;4.50;4.10;;;17.90;99.90;;;;;;5034272;28;20164;-78
2023/09/23 03:03:24;;;;;;;4.40;4.00;;;17.90;99.90;;;;;;5034069;28;20262;-78
2023/09/23 03:06:02;;;;;;;4.37;3.97;;;17.80;99.90;;;;;;5037105;28;20231;-79
2023/09/23 03:08:30;;;;;;;4.17;3.87;;;17.80;99.90;;;;;;5042736;28;20646;-76
2023/09/23 03:11:02;;;;;;;4.27;3.87;;;17.80;99.90;;;;;;5039620;28;20375;-78
2023/09/23 03:13:29;;;;;;;3.83;3.50;;;17.80;99.90;;;;;;5051343;28;20161;-77
2023/09/23 03:16:04;;;;;;;3.23;3.00;;;17.80;99.90;;;;;;5034297;28;20176;-77
2023/09/23 03:18:54;;;;;;;4.03;3.70;;;17.80;99.90;;;;;;5033518;28;20678;-78
2023/09/23 03:21:20;;;;;;;4.33;3.30;;;17.70;99.90;;;;;;5033945;28;20164;-79
2023/09/23 03:23:46;;;;;;;4.50;3.17;;;17.70;99.90;;;;;;5034035;28;20179;-77
2023/09/23 03:26:14;;;;;;;6.10;3.10;;;17.70;99.90;;;;;;5033987;28;20227;-80
2023/09/23 03:28:40;;;;;;;2.73;2.63;;;17.70;99.90;;;;;;5042826;28;20221;-78
2023/09/23 03:31:09;;;;;;;2.90;2.70;;;17.70;99.90;;;;;;5048560;28;20168;-78
2023/09/23 03:33:38;;;;;;;3.40;2.60;;;17.60;99.90;;;;;;5034286;28;20175;-78
2023/09/23 03:36:05;;;;;;;2.87;2.60;;;17.60;99.90;;;;;;5045976;28;20207;-78
2023/09/23 03:38:33;;;;;;;2.33;2.13;;;17.70;99.90;;;;;;5039062;28;20527;-76
2023/09/23 03:41:02;;;;;;;2.97;2.73;;;17.60;99.90;;;;;;5039167;28;20250;-77
2023/09/23 03:43:29;;;;;;;2.53;2.40;;;17.60;99.90;;;;;;5040897;28;20581;-78
2023/09/23 03:45:55;;;;;;;2.60;2.40;;;17.60;99.90;;;;;;5040948;28;20179;-80
2023/09/23 03:48:22;;;;;;;2.70;2.40;;;17.70;99.90;;;;;;5048252;28;20274;-76
2023/09/23 03:50:54;;;;;;;2.50;2.30;;;17.70;99.90;;;;;;5037351;28;20183;-78
2023/09/23 03:53:21;;;;;;;1.93;1.83;;;17.70;99.90;;;;;;5036831;28;20175;-78
2023/09/23 03:55:49;;;;;;;3.80;2.57;;;17.60;99.90;;;;;;5037357;28;20172;-78
2023/09/23 03:58:17;;;;;;;2.50;2.40;;;17.70;99.90;;;;;;5036846;28;20560;-77
2023/09/23 04:00:43;;;;;;;2.37;2.17;;;17.70;99.90;;;;;;5036481;28;20168;-78
2023/09/23 04:03:10;;;;;;;2.40;2.20;;;17.80;99.90;;;;;;5037432;28;20180;-79
2023/09/23 04:05:36;;;;;;;2.57;2.30;;;17.90;99.90;;;;;;5036333;28;20176;-78
2023/09/23 04:08:02;;;;;;;2.70;2.50;;;17.80;99.90;;;;;;5036682;28;20229;-76
2023/09/23 04:10:28;;;;;;;2.63;2.43;;;17.80;99.90;;;;;;5036896;28;20208;-79
2023/09/23 04:12:55;;;;;;;2.90;2.70;;;17.80;99.90;;;;;;5047081;28;20168;-76
2023/09/23 04:15:22;;;;;;;2.70;2.50;;;17.80;99.90;;;;;;5043119;28;20168;-78
2023/09/23 04:17:48;;;;;;;3.53;2.47;;;17.80;99.90;;;;;;5038451;28;20628;-80
2023/09/23 04:20:17;;;;;;;2.40;2.30;;;17.90;99.90;;;;;;5044231;28;20187;-78
2023/09/23 04:22:46;;;;;;;5.00;4.53;;;17.90;99.90;;;;;;5037073;28;20330;-76
2023/09/23 04:25:14;;;;;;;6.43;4.80;;;17.90;99.90;;;;;;5049735;28;20199;-76
2023/09/23 04:27:40;;;;;;;5.77;5.17;;;18.00;99.90;;;;;;5038084;28;20633;-80
2023/09/23 04:30:11;;;;;;;4.83;3.33;;;18.00;99.90;;;;;;5036101;28;20211;-78
2023/09/23 04:32:41;;;;;;;3.17;2.60;;;18.00;99.90;;;;;;5036400;28;20177;-79
2023/09/23 04:35:09;;;;;;;5.37;2.70;;;17.90;99.90;;;;;;5036747;28;20169;-78
2023/09/23 04:37:37;;;;;;;2.47;2.27;;;17.80;99.90;;;;;;5036745;28;20585;-77
2023/09/23 04:40:09;;;;;;;2.17;1.90;;;17.90;99.90;;;;;;5038738;28;20507;-77
2023/09/23 04:42:35;;;;;;;1.73;1.63;;;17.70;99.90;;;;;;5039210;28;20161;-77
2023/09/23 04:45:03;;;;;;;1.40;1.30;;;17.50;99.90;;;;;;5037499;28;20172;-78
2023/09/23 04:47:28;;;;;;;1.40;1.30;;;17.30;99.90;;;;;;5038345;28;20176;-78
2023/09/23 04:49:57;;;;;;;2.03;1.60;;;17.20;99.90;;;;;;5020763;28;20216;-77
2023/09/23 04:52:23;;;;;;;1.93;1.50;;;17.10;99.90;;;;;;5043235;28;20188;-78
2023/09/23 04:54:53;;;;;;;1.60;1.50;;;16.90;99.90;;;;;;5032178;28;20214;-78
2023/09/23 04:57:19;;;;;;;3.30;1.80;;;16.70;99.90;;;;;;5040983;28;20288;-78
2023/09/23 04:59:45;;;;;;;2.40;1.53;;;16.40;99.90;;;;;;5037325;28;20253;-78
2023/09/23 05:02:13;;;;;;;4.80;1.93;;;16.20;99.90;;;;;;5035329;28;20252;-78
2023/09/23 05:04:40;;;;;;;1.90;1.80;;;16.30;99.90;;;;;;5035465;28;20184;-80
2023/09/23 05:07:06;;;;;;;1.93;1.77;;;16.30;99.90;;;;;;5035327;28;20183;-80
2023/09/23 05:09:31;;;;;;;1.73;1.60;;;16.30;99.90;;;;;;5035949;28;20208;-79
2023/09/23 05:11:59;;;;;;;1.50;1.40;;;16.30;99.90;;;;;;5035638;28;20187;-78
2023/09/23 05:14:25;;;;;;;1.60;1.50;;;16.30;99.90;;;;;;5035484;28;20179;-78
2023/09/23 05:16:51;;;;;;;1.40;1.30;;;16.30;99.90;;;;;;5035701;28;20196;-78
2023/09/23 05:19:21;;;;;;;3.43;1.30;;;16.20;99.90;;;;;;5035252;28;20184;-78
2023/09/23 05:21:47;;;;;;;2.77;1.90;;;16.20;99.90;;;;;;5035505;28;20172;-79
2023/09/23 05:24:13;;;;;;;1.10;1.10;;;16.20;99.90;;;;;;5035078;28;20186;-79
2023/09/23 05:26:43;;;;;;;2.10;1.10;;;16.10;99.90;;;;;;5035194;28;20316;-78
2023/09/23 05:29:09;;;;;;;1.77;1.43;;;16.10;99.90;;;;;;5036302;28;20263;-79
2023/09/23 05:31:36;;;;;;;1.50;1.03;;;16.10;99.90;;;;;;5052871;28;20167;-79
2023/09/23 05:34:03;;;;;;;1.53;0.80;;;16.10;99.90;;;;;;5035425;28;20257;-79
2023/09/23 05:36:32;;;;;;;0.50;0.50;;;16.30;99.90;;;;;;5035137;28;20227;-78
2023/09/23 05:38:59;;;;;;;0.40;0.40;;;16.30;99.90;;;;;;5035660;28;20642;-80
2023/09/23 05:41:25;;;;;;;0.53;0.53;;;16.20;99.90;;;;;;5035342;28;20168;-80
2023/09/23 05:43:53;;;;;;;0.57;0.57;;;16.10;99.90;;;;;;5034656;28;20179;-80
2023/09/23 05:46:19;;;;;;;1.60;0.70;;;16.20;99.90;;;;;;5034545;28;20168;-81
2023/09/23 05:48:48;;;;;;;0.60;0.60;;;16.10;99.90;;;;;;5040106;28;20198;-81
2023/09/23 05:51:15;;;;;;;1.37;0.63;;;15.90;99.90;;;;;;5048789;28;20158;-79
2023/09/23 05:53:42;;;;;;;1.13;0.40;;;16.00;99.90;;;;;;5051185;28;20183;-80
2023/09/23 05:56:08;;;;;;;0.50;0.50;;;16.00;99.90;;;;;;5044700;28;20663;-81
2023/09/23 05:58:34;;;;;;;0.70;0.47;;;16.00;99.90;;;;;;5017428;28;20223;-79
2023/09/23 06:01:00;;;;;;;0.70;0.30;;;15.90;99.90;;;;;;5034650;28;20180;-77
2023/09/23 06:03:26;;;;;;;0.53;0.53;;;16.00;99.90;;;;;;5053371;28;20169;-79
2023/09/23 06:05:51;;;;;;;0.50;0.50;;;16.10;99.90;;;;;;5036309;28;20180;-78
2023/09/23 06:08:17;;;;;;;0.30;0.30;;;16.10;99.90;;;;;;5040154;28;20259;-80
2023/09/23 06:10:43;;;;;;;0.43;0.37;;;16.10;99.90;;;;;;5034727;28;20312;-79
2023/09/23 06:13:09;;;;;;;0.90;0.73;;;16.10;99.90;;;;;;5034607;28;20177;-80
2023/09/23 06:15:35;;;;;;;0.50;0.50;;;16.20;99.90;;;;;;5016680;28;20617;-80
2023/09/23 06:18:01;;;;;;;0.50;0.50;;;16.30;99.90;;;;;;5034450;28;20522;-80
2023/09/23 06:20:28;;;;;;;0.43;0.43;;;16.10;99.90;;;;;;5034448;28;20177;-81
2023/09/23 06:22:54;;;;;;;1.90;1.80;;;16.10;99.90;;;;;;5016951;28;20175;-79
2023/09/23 06:25:20;;;;;;;1.40;1.30;;;16.00;99.90;;;;;;5034088;28;20276;-78
2023/09/23 06:27:46;;;;;;;0.73;0.50;;;15.80;99.90;;;;;;5033872;28;20243;-77
2023/09/23 06:30:15;;;;;;;0.57;0.57;;;16.00;99.90;;;;;;5033642;28;20202;-80
2023/09/23 06:32:42;;;;;;;0.50;0.50;;;16.00;99.90;;;;;;5034388;28;20174;-79
2023/09/23 06:35:10;;;;;;;1.03;0.50;;;15.90;99.90;;;;;;5036120;28;20172;-80
2023/09/23 06:37:35;;;;;;;0.80;0.80;;;16.00;99.90;;;;;;5038395;28;20177;-79
2023/09/23 06:40:01;;;;;;;0.60;0.60;;;16.00;99.90;;;;;;5038753;28;20184;-79
2023/09/23 06:42:27;;;;;;;0.67;0.67;;;16.10;99.90;;;;;;5034421;28;20670;-79
2023/09/23 06:44:53;;;;;;;0.60;0.60;;;16.00;99.90;;;;;;5034018;28;20172;-78
2023/09/23 06:47:20;;;;;;;0.80;0.80;;;16.10;99.90;;;;;;5034236;28;20647;-78
2023/09/23 06:49:45;;;;;;;0.60;0.60;;;16.10;99.90;;;;;;5034566;28;20690;-80
2023/09/23 06:52:12;;;;;;;0.60;0.60;;;16.10;99.90;;;;;;5037259;28;20171;-79
2023/09/23 06:54:38;;;;;;;0.80;0.80;;;16.20;99.90;;;;;;5052519;28;20200;-80
2023/09/23 06:57:04;;;;;;;0.80;0.80;;;16.40;99.90;;;;;;5039773;28;20298;-79
2023/09/23 06:59:30;;;;;;;0.60;0.60;;;16.40;99.90;;;;;;5046098;28;20169;-79
2023/09/23 07:01:55;;;;;;;0.63;0.60;;;16.40;99.90;;;;;;5056688;28;20263;-81
2023/09/23 07:04:21;;;;;;;0.60;0.60;;;16.40;99.90;;;;;;5046249;28;20540;-81
2023/09/23 07:06:47;;;;;;;0.60;0.60;;;16.40;99.90;;;;;;5036442;28;20187;-80
2023/09/23 07:09:13;;;;;;;0.90;0.90;;;16.40;99.90;;;;;;5036029;28;20247;-79
2023/09/23 07:11:40;;;;;;;0.90;0.90;;;16.40;99.90;;;;;;5037697;28;20242;-80
2023/09/23 07:14:06;;;;;;;0.93;0.93;;;16.50;99.90;;;;;;5037388;28;20183;-80
2023/09/23 07:16:33;;;;;;;0.87;0.60;;;16.40;99.90;;;;;;5037935;28;20184;-81
2023/09/23 07:19:00;;;;;;;0.60;0.60;;;16.50;99.90;;;;;;5038521;28;20229;-80
2023/09/23 07:21:26;;;;;;;1.10;1.10;;;16.50;99.90;;;;;;5040220;28;20185;-79
2023/09/23 07:23:52;;;;;;;0.97;0.90;;;16.50;99.90;;;;;;5037670;28;20179;-80
2023/09/23 07:26:21;;;;;;;1.37;0.83;;;16.50;99.90;;;;;;5036998;28;20227;-78
2023/09/23 07:28:47;;;;;;;0.87;0.87;;;16.60;99.90;;;;;;5042569;28;20200;-78
2023/09/23 07:31:14;;;;;;;1.80;1.00;;;16.60;99.90;;;;;;5047598;28;20531;-80
2023/09/23 07:33:39;;;;;;;1.03;1.00;;;16.50;99.90;;;;;;5037669;28;20179;-79
2023/09/23 07:36:10;;;;;;;2.20;1.20;;;16.50;99.90;;;;;;5037936;28;20181;-80
2023/09/23 07:38:36;;;;;;;1.60;1.13;;;16.40;99.90;;;;;;5040654;28;20175;-80
2023/09/23 07:41:02;;;;;;;1.03;1.03;;;16.70;99.90;;;;;;5048224;28;20203;-80
2023/09/23 07:43:28;;;;;;;3.30;0.90;;;16.70;99.90;;;;;;5049243;28;20168;-82
2023/09/23 07:45:54;;;;;;;1.17;1.07;;;16.70;99.90;;;;;;5037549;28;20632;-80
2023/09/23 07:48:20;;;;;;;1.00;0.90;;;16.70;99.90;;;;;;5037681;28;20220;-77
2023/09/23 07:50:46;;;;;;;0.70;0.70;;;16.80;99.90;;;;;;5019528;28;20211;-84
2023/09/23 07:53:12;;;;;;;1.40;0.83;;;16.80;99.90;;;;;;5037369;28;20167;-83
2023/09/23 07:55:38;;;;;;;0.90;0.90;;;17.00;99.90;;;;;;5037809;28;20259;-80
2023/09/23 07:58:04;;;;;;;0.97;0.97;;;16.90;99.90;;;;;;5046871;28;20172;-77
2023/09/23 08:00:30;;;;;;;0.90;0.90;;;17.10;99.90;;;;;;5043377;28;20171;-77
2023/09/23 08:02:55;;;;;;;0.80;0.80;;;17.00;99.90;;;;;;5037261;28;20172;-80
2023/09/23 08:05:25;;;;;;;0.90;0.90;;;17.00;99.90;;;;;;5037620;28;20176;-84
2023/09/23 08:07:51;;;;;;;2.83;1.10;;;17.10;99.90;;;;;;5037698;28;20173;-82
2023/09/23 08:10:17;;;;;;;1.40;1.30;;;17.20;99.90;;;;;;5036321;28;20668;-82
2023/09/23 08:12:44;;;;;;;1.37;1.23;;;17.10;99.90;;;;;;5018715;28;20327;-82
2023/09/23 08:15:11;;;;;;;0.80;0.80;;;17.30;99.90;;;;;;5019473;28;20542;-80
2023/09/23 08:17:39;;;;;;;2.63;1.10;;;17.30;99.90;;;;;;5036800;28;20200;-82
2023/09/23 08:20:18;;;;;;;1.30;1.20;;;17.30;99.90;;;;;;5035793;28;20199;-81
2023/09/23 08:22:45;;;;;;;1.03;1.03;;;17.10;99.90;;;;;;5036382;28;20178;-81
2023/09/23 08:25:12;;;;;;;1.10;1.10;;;17.10;99.90;;;;;;5036802;28;20175;-76
2023/09/23 08:27:38;;;;;;;1.20;1.10;;;17.10;99.90;;;;;;5036451;28;20226;-83
2023/09/23 08:30:05;;;;;;;1.10;1.10;;;17.00;99.90;;;;;;5036635;28;20671;-78
2023/09/23 08:32:31;;;;;;;1.50;1.40;;;17.00;99.90;;;;;;5038297;28;20169;-81
2023/09/23 08:34:56;;;;;;;1.20;1.10;;;17.00;99.90;;;;;;5059484;28;20214;-80
2023/09/23 08:37:22;;;;;;;1.00;1.00;;;17.00;99.90;;;;;;5053488;28;20664;-83
2023/09/23 08:39:48;;;;;;;1.30;1.20;;;17.20;99.90;;;;;;5039528;28;20176;-82
2023/09/23 08:42:17;;;;;;;1.27;1.27;;;17.10;99.90;;;;;;5039155;28;20176;-81
2023/09/23 08:44:43;;;;;;;1.70;1.23;;;17.10;99.90;;;;;;5040127;28;20176;-84
2023/09/23 08:47:10;;;;;;;2.97;1.70;;;17.00;99.90;;;;;;5058241;28;20155;-84
2023/09/23 08:49:37;;;;;;;1.30;1.20;;;17.20;99.90;;;;;;5039797;28;20224;-79
2023/09/23 08:52:04;;;;;;;1.53;1.40;;;17.10;99.90;;;;;;5054510;28;20183;-80
2023/09/23 08:54:31;;;;;;;1.47;1.40;;;16.90;99.90;;;;;;5053510;28;20179;-80
2023/09/23 08:56:58;;;;;;;1.47;1.37;;;17.00;99.90;;;;;;5037670;28;20525;-80
2023/09/23 08:59:26;;;;;;;1.40;1.33;;;17.00;99.90;;;;;;5036040;28;20180;-78
2023/09/23 09:01:52;;;;;;;1.20;1.20;;;16.90;99.90;;;;;;5036012;28;20175;-77
2023/09/23 09:04:18;;;;;;;1.90;1.43;;;16.80;99.90;;;;;;5040162;28;20527;-75
2023/09/23 09:06:50;;;;;;;2.90;2.63;;;17.00;99.90;;;;;;5021054;28;20190;-78
2023/09/23 09:09:16;;;;;;;2.40;2.20;;;16.80;99.90;;;;;;5049184;28;20204;-78
2023/09/23 09:11:45;;;;;;;1.50;1.37;;;17.50;99.90;;;;;;5022380;28;20241;-78
2023/09/23 09:14:11;;;;;;;1.80;1.70;;;16.80;99.90;;;;;;5025524;28;20175;-81
2023/09/23 09:16:38;;;;;;;1.60;1.50;;;16.80;99.90;;;;;;5038762;28;20180;-83
2023/09/23 09:19:05;;;;;;;1.50;1.40;;;16.80;99.90;;;;;;5047648;28;20179;-85
2023/09/23 09:21:32;;;;;;;1.80;1.70;;;17.00;99.90;;;;;;5049133;28;20624;-86
2023/09/23 09:24:01;;;;;;;1.73;1.63;;;17.00;99.90;;;;;;5019785;28;20190;-85
2023/09/23 09:26:27;;;;;;;1.53;1.43;;;16.80;99.90;;;;;;5038135;28;20219;-85
2023/09/23 09:28:53;;;;;;;1.60;1.50;;;16.90;99.90;;;;;;5020304;28;20218;-83
2023/09/23 09:31:18;;;;;;;2.40;1.40;;;16.70;99.90;;;;;;5036835;28;20180;-83
2023/09/23 09:33:47;;;;;;;2.20;1.63;;;16.60;99.90;;;;;;5037459;28;20183;-86
2023/09/23 09:36:20;;;;;;;1.67;1.57;;;16.50;99.90;;;;;;5036669;28;20635;-83
2023/09/23 09:38:53;;;;;;;1.73;1.57;;;16.70;99.90;;;;;;5037097;28;20631;-85
2023/09/23 09:41:24;;;;;;;1.43;1.30;;;16.50;99.90;;;;;;5038497;28;20187;-85
2023/09/23 09:43:50;;;;;;;1.33;1.23;;;16.50;99.90;;;;;;5037777;28;20199;-84
2023/09/23 09:46:21;;;;;;;1.63;1.53;;;16.50;99.90;;;;;;5019915;28;20176;-84
2023/09/23 09:48:48;;;;;;;1.10;1.10;;;16.50;99.90;;;;;;5037384;28;20221;-85
2023/09/23 09:51:16;;;;;;;1.27;1.13;;;16.20;99.90;;;;;;5038420;28;20254;-85
2023/09/23 09:53:44;;;;;;;2.10;1.20;;;16.20;99.90;;;;;;5037907;28;20168;-82
2023/09/23 09:56:10;;;;;;;1.20;1.20;;;16.30;99.90;;;;;;5038097;28;20173;-84
2023/09/23 09:58:37;;;;;;;1.63;1.53;;;16.40;99.90;;;;;;5034022;28;20179;-84
2023/09/23 10:01:04;;;;;;;1.50;1.37;;;16.50;99.90;;;;;;5036050;28;20183;-83
2023/09/23 10:03:30;;;;;;;2.13;1.40;;;16.60;99.90;;;;;;5029179;28;20156;-81
2023/09/23 10:06:00;;;;;;;1.50;1.40;;;16.30;99.90;;;;;;5048423;28;20259;-86
2023/09/23 10:08:34;;;;;;;1.50;1.40;;;16.50;99.90;;;;;;5036215;28;20652;-86
2023/09/23 10:11:05;;;;;;;1.87;1.70;;;16.60;99.90;;;;;;5035484;28;20536;-86
2023/09/23 10:13:33;;;;;;;2.00;1.87;;;16.60;99.90;;;;;;5035809;28;20167;-86
2023/09/23 10:16:12;;;;;;;1.37;1.30;;;16.50;99.90;;;;;;5037717;28;20176;-86
2023/09/23 10:18:43;;;;;;;1.57;1.47;;;16.60;99.90;;;;;;5039400;28;20250;-85
2023/09/23 10:21:24;;;;;;;1.40;1.30;;;16.50;99.90;;;;;;5035566;28;20243;-86
2023/09/23 10:24:00;;;;;;;1.43;1.33;;;16.60;99.90;;;;;;5035838;28;20578;-85
2023/09/23 10:26:28;;;;;;;1.47;1.30;;;16.70;99.90;;;;;;5036662;28;20607;-86
2023/09/23 10:29:03;;;;;;;1.60;1.50;;;16.70;99.90;;;;;;5036016;28;20207;-86
2023/09/23 10:31:30;;;;;;;1.40;1.30;;;16.60;99.90;;;;;;5037579;28;20245;-84
2023/09/23 10:33:56;;;;;;;1.43;1.43;;;16.70;99.90;;;;;;5044006;28;20181;-84
2023/09/23 10:36:23;;;;;;;1.43;1.33;;;16.70;99.90;;;;;;5049737;28;20192;-85
2023/09/23 10:38:50;;;;;;;1.30;1.20;;;16.50;99.90;;;;;;5048744;28;20184;-87
2023/09/23 10:41:16;;;;;;;1.60;1.50;;;16.70;99.90;;;;;;5019399;28;20246;-86
2023/09/23 10:43:42;;;;;;;2.07;1.40;;;16.80;99.90;;;;;;5037883;28;20250;-84
2023/09/23 10:46:09;;;;;;;1.40;1.37;;;16.90;99.90;;;;;;5047001;28;20245;-83
2023/09/23 10:48:36;;;;;;;3.13;2.57;;;16.90;99.90;;;;;;5051686;28;20215;-80
2023/09/23 10:51:05;;;;;;;1.93;1.47;;;17.00;99.90;;;;;;5047504;28;20187;-85
2023/09/23 10:53:32;;;;;;;2.00;1.60;;;17.10;99.90;;;;;;5038585;28;20165;-86
2023/09/23 10:56:02;;;;;;;2.23;2.07;;;17.00;99.90;;;;;;5056283;28;20243;-86
2023/09/23 10:58:31;;;;;;;2.97;2.53;;;16.90;99.90;;;;;;5067679;28;20170;-83
2023/09/23 11:00:57;;;;;;;2.10;1.60;;;17.10;99.90;;;;;;5026773;28;20240;-87
2023/09/23 11:03:23;;;;;;;1.73;1.63;;;17.30;99.90;;;;;;5053071;28;20178;-83
2023/09/23 11:05:49;;;;;;;1.57;1.57;;;17.30;99.90;;;;;;5062338;28;20176;-85
2023/09/23 11:08:18;;;;;;;1.40;1.40;;;17.10;99.90;;;;;;5037632;28;20237;-85
2023/09/23 11:10:48;;;;;;;1.60;1.50;;;17.00;99.90;;;;;;5035668;28;20211;-86
2023/09/23 11:13:15;;;;;;;1.50;1.40;;;17.00;99.90;;;;;;5037634;28;20172;-84
2023/09/23 11:15:44;;;;;;;1.50;1.40;;;17.10;99.90;;;;;;5040848;28;20176;-85
2023/09/23 11:18:13;;;;;;;1.63;1.53;;;17.20;99.90;;;;;;5048974;28;20666;-84
2023/09/23 11:20:41;;;;;;;1.70;1.60;;;17.20;99.90;;;;;;5056878;28;20192;-81
2023/09/23 11:23:07;;;;;;;1.97;1.70;;;17.10;99.90;;;;;;5036796;28;20176;-81
2023/09/23 11:25:44;;;;;;;2.23;1.37;;;17.20;99.90;;;;;;5034402;28;20640;-77
2023/09/23 11:28:18;;;;;;;1.63;1.63;;;17.00;99.90;;;;;;5034254;28;20291;-78
2023/09/23 11:30:44;;;;;;;1.40;1.40;;;17.00;99.90;;;;;;5032910;28;20208;-78
2023/09/23 11:33:14;;;;;;;1.27;1.27;;;17.00;99.90;;;;;;5015574;28;20176;-75
2023/09/23 11:35:43;;;;;;;1.97;1.87;;;17.00;99.90;;;;;;5033123;28;20543;-79
2023/09/23 11:38:10;;;;;;;4.07;2.00;;;17.30;99.90;;;;;;5032629;28;20266;-79
2023/09/23 11:40:36;;;;;;;1.77;1.67;;;17.20;99.90;;;;;;5033445;28;20171;-79
2023/09/23 11:43:03;;;;;;;1.70;1.60;;;17.10;99.90;;;;;;5033494;28;20194;-79
2023/09/23 11:45:29;;;;;;;1.50;1.50;;;18.20;99.90;;;;;;5033326;28;20268;-79
2023/09/23 11:47:56;;;;;;;1.50;1.50;;;17.20;99.90;;;;;;5036037;28;20196;-79
2023/09/23 11:50:23;;;;;;;2.20;1.60;;;17.40;99.90;;;;;;5054452;28;20206;-79
2023/09/23 11:52:49;;;;;;;1.43;1.37;;;17.20;99.90;;;;;;5035700;28;20179;-79
2023/09/23 11:55:16;;;;;;;1.63;1.53;;;17.40;99.90;;;;;;5055187;28;20282;-77
2023/09/23 11:57:42;;;;;;;2.40;1.40;;;17.40;99.90;;;;;;5057364;28;20177;-78
2023/09/23 12:00:13;;;;;;;1.50;1.50;;;17.50;99.90;;;;;;5056896;28;20168;-78
2023/09/23 12:02:40;;;;;;;2.40;1.73;;;17.50;99.90;;;;;;5039344;28;20216;-78
2023/09/23 12:05:13;;;;;;;1.47;1.40;;;17.60;99.90;;;;;;5056614;28;20531;-79
2023/09/23 12:07:38;;;;;;;1.83;1.73;;;17.50;99.90;;;;;;5056415;28;20162;-80
2023/09/23 12:10:09;;;;;;;2.20;2.00;;;17.40;99.90;;;;;;5066014;28;20349;-79
2023/09/23 12:12:35;;;;;;;1.87;1.77;;;17.40;99.90;;;;;;5058894;28;20258;-80
2023/09/23 12:15:02;;;;;;;1.63;1.53;;;17.40;99.90;;;;;;5056661;28;20260;-78
2023/09/23 12:17:28;;;;;;;1.43;1.40;;;17.60;99.90;;;;;;5056315;28;20180;-80
2023/09/23 12:19:53;;;;;;;2.10;1.80;;;17.50;99.90;;;;;;5056767;28;20222;-79
2023/09/23 12:22:20;;;;;;;1.80;1.70;;;17.60;99.90;;;;;;5056824;28;20180;-79
2023/09/23 12:24:46;;;;;;;1.70;1.60;;;17.50;99.90;;;;;;5070221;28;20171;-80
2023/09/23 12:27:12;;;;;;;1.77;1.67;;;17.50;99.90;;;;;;5064345;28;20227;-78
2023/09/23 12:29:39;;;;;;;2.73;1.60;;;17.50;99.90;;;;;;5061285;28;20211;-77
2023/09/23 12:32:05;;;;;;;1.83;1.73;;;17.60;99.90;;;;;;5058469;28;20231;-78
2023/09/23 12:34:32;;;;;;;3.00;1.70;;;17.50;99.90;;;;;;5056976;28;20208;-79
2023/09/23 12:36:58;;;;;;;1.93;1.83;;;17.70;99.90;;;;;;5077550;28;20176;-80
2023/09/23 12:39:24;;;;;;;1.60;1.50;;;17.60;99.90;;;;;;5056919;28;20305;-79
2023/09/23 12:41:50;;;;;;;2.10;1.60;;;17.60;99.90;;;;;;5055860;28;20167;-80
2023/09/23 12:44:19;;;;;;;1.60;1.53;;;17.60;99.90;;;;;;5060353;28;20184;-81
2023/09/23 12:46:45;;;;;;;1.70;1.57;;;17.60;99.90;;;;;;5062600;28;20209;-80
2023/09/23 12:49:11;;;;;;;1.70;1.70;;;17.60;99.90;;;;;;5074862;28;20211;-81